sensor_id;sensor_type;location;lat;lon;timestamp;P1;durP1;ratioP1;P2;durP2;ratioP2
4311;SDS011;77323;49.086;9.284;2024-03-23T00:52:14;8.18;;;5.90;;
4311;SDS011;77323;49.086;9.284;2024-03-23T00:53:14;8.90;;;4.53;;
4311;SDS011;77323;49.086;9.284;2024-03-23T00:54:15;15.50;;;5.10;;
4311;SDS011;77323;49.086;9.284;2024-03-23T00:55:16;4.95;;;4.55;;
4311;SDS011;77323;49.086;9.284;2024-03-23T00:56:17;3.73;;;3.43;;
4311;SDS011;77323;49.086;9.284;2024-03-23T00:57:18;5.60;;;4.80;;
4311;SDS011;77323;49.086;9.284;2024-03-23T00:58:19;9.20;;;5.65;;
4311;SDS011;77323;49.086;9.284;2024-03-23T00:59:20;8.17;;;4.50;;
4311;SDS011;77323;49.086;9.284;2024-03-23T01:00:22;4.93;;;4.45;;
4311;SDS011;77323;49.086;9.284;2024-03-23T01:01:22;9.00;;;4.90;;
4311;SDS011;77323;49.086;9.284;2024-03-23T01:02:24;5.10;;;4.25;;
4311;SDS011;77323;49.086;9.284;2024-03-23T01:03:24;5.40;;;4.90;;
4311;SDS011;77323;49.086;9.284;2024-03-23T01:04:25;8.90;;;4.80;;
4311;SDS011;77323;49.086;9.284;2024-03-23T01:05:26;5.33;;;4.83;;
4311;SDS011;77323;49.086;9.284;2024-03-23T01:06:27;7.40;;;5.63;;
4311;SDS011;77323;49.086;9.284;2024-03-23T01:07:28;4.27;;;4.00;;
4311;SDS011;77323;49.086;9.284;2024-03-23T01:08:28;5.73;;;5.23;;
4311;SDS011;77323;49.086;9.284;2024-03-23T01:09:29;3.87;;;3.57;;
4311;SDS011;77323;49.086;9.284;2024-03-23T01:10:31;9.45;;;6.07;;
4311;SDS011;77323;49.086;9.284;2024-03-23T01:11:31;5.37;;;4.87;;
4311;SDS011;77323;49.086;9.284;2024-03-23T01:12:32;6.57;;;5.10;;
4311;SDS011;77323;49.086;9.284;2024-03-23T01:13:32;10.60;;;4.83;;
4311;SDS011;77323;49.086;9.284;2024-03-23T01:14:34;6.38;;;5.75;;
4311;SDS011;77323;49.086;9.284;2024-03-23T01:15:36;5.53;;;4.97;;
4311;SDS011;77323;49.086;9.284;2024-03-23T01:16:37;8.63;;;4.32;;
4311;SDS011;77323;49.086;9.284;2024-03-23T01:17:38;11.40;;;5.07;;
4311;SDS011;77323;49.086;9.284;2024-03-23T01:18:39;5.97;;;5.40;;
4311;SDS011;77323;49.086;9.284;2024-03-23T01:19:40;6.50;;;4.70;;
4311;SDS011;77323;49.086;9.284;2024-03-23T01:20:41;5.70;;;4.63;;
4311;SDS011;77323;49.086;9.284;2024-03-23T01:21:42;4.60;;;4.20;;
4311;SDS011;77323;49.086;9.284;2024-03-23T01:22:43;5.30;;;5.03;;
4311;SDS011;77323;49.086;9.284;2024-03-23T01:23:44;5.27;;;4.67;;
4311;SDS011;77323;49.086;9.284;2024-03-23T01:24:44;12.30;;;5.10;;
4311;SDS011;77323;49.086;9.284;2024-03-23T01:25:52;5.63;;;5.10;;
4311;SDS011;77323;49.086;9.284;2024-03-23T01:26:53;4.90;;;4.40;;
4311;SDS011;77323;49.086;9.284;2024-03-23T01:27:54;9.77;;;5.70;;
4311;SDS011;77323;49.086;9.284;2024-03-23T01:28:54;4.77;;;4.47;;
4311;SDS011;77323;49.086;9.284;2024-03-23T01:29:56;8.50;;;4.15;;
4311;SDS011;77323;49.086;9.284;2024-03-23T01:30:56;19.57;;;6.50;;
4311;SDS011;77323;49.086;9.284;2024-03-23T01:31:57;8.10;;;4.60;;
4311;SDS011;77323;49.086;9.284;2024-03-23T01:32:58;5.55;;;5.00;;
4311;SDS011;77323;49.086;9.284;2024-03-23T01:33:59;7.53;;;5.00;;
4311;SDS011;77323;49.086;9.284;2024-03-23T01:35:00;8.03;;;4.87;;
4311;SDS011;77323;49.086;9.284;2024-03-23T01:36:01;6.43;;;5.70;;
4311;SDS011;77323;49.086;9.284;2024-03-23T01:37:03;5.03;;;4.63;;
4311;SDS011;77323;49.086;9.284;2024-03-23T01:38:03;5.63;;;4.80;;
4311;SDS011;77323;49.086;9.284;2024-03-23T01:39:04;4.10;;;3.80;;
4311;SDS011;77323;49.086;9.284;2024-03-23T01:40:05;5.00;;;4.57;;
4311;SDS011;77323;49.086;9.284;2024-03-23T01:41:07;9.32;;;3.60;;
4311;SDS011;77323;49.086;9.284;2024-03-23T01:42:07;9.97;;;4.83;;
4311;SDS011;77323;49.086;9.284;2024-03-23T01:43:08;4.57;;;4.13;;
4311;SDS011;77323;49.086;9.284;2024-03-23T01:44:09;9.90;;;4.93;;
4311;SDS011;77323;49.086;9.284;2024-03-23T01:45:10;4.85;;;4.50;;
4311;SDS011;77323;49.086;9.284;2024-03-23T01:46:11;6.37;;;5.70;;
4311;SDS011;77323;49.086;9.284;2024-03-23T01:47:12;5.27;;;4.67;;
4311;SDS011;77323;49.086;9.284;2024-03-23T01:48:13;6.20;;;4.68;;
4311;SDS011;77323;49.086;9.284;2024-03-23T01:49:14;9.80;;;4.30;;
4311;SDS011;77323;49.086;9.284;2024-03-23T01:50:15;4.97;;;4.45;;
4311;SDS011;77323;49.086;9.284;2024-03-23T01:51:16;6.10;;;5.57;;
4311;SDS011;77323;49.086;9.284;2024-03-23T01:52:18;10.40;;;6.20;;
4311;SDS011;77323;49.086;9.284;2024-03-23T01:53:19;5.50;;;5.00;;
4311;SDS011;77323;49.086;9.284;2024-03-23T01:54:21;6.68;;;6.18;;
4311;SDS011;77323;49.086;9.284;2024-03-23T01:55:23;12.52;;;4.85;;
4311;SDS011;77323;49.086;9.284;2024-03-23T01:56:24;7.55;;;4.20;;
4311;SDS011;77323;49.086;9.284;2024-03-23T01:57:25;4.70;;;3.90;;
4311;SDS011;77323;49.086;9.284;2024-03-23T01:58:25;8.03;;;5.13;;
4311;SDS011;77323;49.086;9.284;2024-03-23T01:59:26;5.23;;;4.83;;
4311;SDS011;77323;49.086;9.284;2024-03-23T02:00:27;8.95;;;5.03;;
4311;SDS011;77323;49.086;9.284;2024-03-23T02:01:29;3.65;;;3.35;;
4311;SDS011;77323;49.086;9.284;2024-03-23T02:02:29;7.43;;;3.97;;
4311;SDS011;77323;49.086;9.284;2024-03-23T02:03:30;8.87;;;5.10;;
4311;SDS011;77323;49.086;9.284;2024-03-23T02:04:32;6.18;;;4.05;;
4311;SDS011;77323;49.086;9.284;2024-03-23T02:05:32;3.87;;;3.57;;
4311;SDS011;77323;49.086;9.284;2024-03-23T02:06:33;11.37;;;4.30;;
4311;SDS011;77323;49.086;9.284;2024-03-23T02:07:34;7.50;;;4.07;;
4311;SDS011;77323;49.086;9.284;2024-03-23T02:08:34;4.70;;;3.80;;
4311;SDS011;77323;49.086;9.284;2024-03-23T02:09:36;5.53;;;3.95;;
4311;SDS011;77323;49.086;9.284;2024-03-23T02:10:36;5.03;;;4.40;;
4311;SDS011;77323;49.086;9.284;2024-03-23T02:11:37;4.00;;;3.77;;
4311;SDS011;77323;49.086;9.284;2024-03-23T02:12:38;4.55;;;3.72;;
4311;SDS011;77323;49.086;9.284;2024-03-23T02:13:39;4.43;;;4.10;;
4311;SDS011;77323;49.086;9.284;2024-03-23T02:14:40;7.33;;;4.80;;
4311;SDS011;77323;49.086;9.284;2024-03-23T02:15:41;5.30;;;4.80;;
4311;SDS011;77323;49.086;9.284;2024-03-23T02:16:43;4.95;;;4.35;;
4311;SDS011;77323;49.086;9.284;2024-03-23T02:17:43;3.73;;;3.43;;
4311;SDS011;77323;49.086;9.284;2024-03-23T02:18:44;6.80;;;4.07;;
4311;SDS011;77323;49.086;9.284;2024-03-23T02:19:46;4.40;;;3.78;;
4311;SDS011;77323;49.086;9.284;2024-03-23T02:20:46;11.80;;;5.00;;
4311;SDS011;77323;49.086;9.284;2024-03-23T02:21:47;5.10;;;3.83;;
4311;SDS011;77323;49.086;9.284;2024-03-23T02:22:50;6.40;;;4.20;;
4311;SDS011;77323;49.086;9.284;2024-03-23T02:23:53;5.57;;;4.13;;
4311;SDS011;77323;49.086;9.284;2024-03-23T02:24:53;5.30;;;4.67;;
4311;SDS011;77323;49.086;9.284;2024-03-23T02:25:54;5.43;;;3.87;;
4311;SDS011;77323;49.086;9.284;2024-03-23T02:26:55;6.07;;;4.20;;
4311;SDS011;77323;49.086;9.284;2024-03-23T02:27:56;3.37;;;3.07;;
4311;SDS011;77323;49.086;9.284;2024-03-23T02:28:58;3.85;;;3.60;;
4311;SDS011;77323;49.086;9.284;2024-03-23T02:30:00;5.90;;;3.85;;
4311;SDS011;77323;49.086;9.284;2024-03-23T02:31:01;5.90;;;5.30;;
4311;SDS011;77323;49.086;9.284;2024-03-23T02:32:02;3.75;;;3.65;;
4311;SDS011;77323;49.086;9.284;2024-03-23T02:33:04;4.68;;;3.28;;
4311;SDS011;77323;49.086;9.284;2024-03-23T02:34:04;8.33;;;5.20;;
4311;SDS011;77323;49.086;9.284;2024-03-23T02:35:05;4.23;;;3.93;;
4311;SDS011;77323;49.086;9.284;2024-03-23T02:36:07;4.25;;;3.85;;
4311;SDS011;77323;49.086;9.284;2024-03-23T02:37:11;12.33;;;4.23;;
4311;SDS011;77323;49.086;9.284;2024-03-23T02:38:11;4.70;;;4.35;;
4311;SDS011;77323;49.086;9.284;2024-03-23T02:39:12;6.17;;;4.00;;
4311;SDS011;77323;49.086;9.284;2024-03-23T02:40:14;4.25;;;3.95;;
4311;SDS011;77323;49.086;9.284;2024-03-23T02:41:15;5.63;;;4.15;;
4311;SDS011;77323;49.086;9.284;2024-03-23T02:42:22;4.70;;;3.45;;
4311;SDS011;77323;49.086;9.284;2024-03-23T02:43:23;3.80;;;3.53;;
4311;SDS011;77323;49.086;9.284;2024-03-23T02:44:24;9.52;;;7.85;;
4311;SDS011;77323;49.086;9.284;2024-03-23T02:45:25;8.47;;;4.67;;
4311;SDS011;77323;49.086;9.284;2024-03-23T02:46:26;6.93;;;4.40;;
4311;SDS011;77323;49.086;9.284;2024-03-23T02:47:27;8.35;;;5.75;;
4311;SDS011;77323;49.086;9.284;2024-03-23T02:48:28;3.40;;;3.20;;
4311;SDS011;77323;49.086;9.284;2024-03-23T02:49:28;4.90;;;3.80;;
4311;SDS011;77323;49.086;9.284;2024-03-23T02:50:29;3.83;;;3.53;;
4311;SDS011;77323;49.086;9.284;2024-03-23T02:51:30;3.95;;;3.65;;
4311;SDS011;77323;49.086;9.284;2024-03-23T02:52:31;7.80;;;5.30;;
4311;SDS011;77323;49.086;9.284;2024-03-23T02:53:32;5.23;;;3.70;;
4311;SDS011;77323;49.086;9.284;2024-03-23T02:54:33;3.75;;;3.50;;
4311;SDS011;77323;49.086;9.284;2024-03-23T02:55:34;4.17;;;3.87;;
4311;SDS011;77323;49.086;9.284;2024-03-23T02:56:35;5.65;;;4.07;;
4311;SDS011;77323;49.086;9.284;2024-03-23T02:57:36;7.00;;;5.33;;
4311;SDS011;77323;49.086;9.284;2024-03-23T02:58:37;4.10;;;3.72;;
4311;SDS011;77323;49.086;9.284;2024-03-23T02:59:38;4.00;;;3.70;;
4311;SDS011;77323;49.086;9.284;2024-03-23T03:00:39;5.63;;;4.47;;
4311;SDS011;77323;49.086;9.284;2024-03-23T03:01:40;4.07;;;3.70;;
4311;SDS011;77323;49.086;9.284;2024-03-23T03:02:42;4.10;;;3.80;;
4311;SDS011;77323;49.086;9.284;2024-03-23T03:03:42;13.20;;;4.07;;
4311;SDS011;77323;49.086;9.284;2024-03-23T03:04:44;14.18;;;4.65;;
4311;SDS011;77323;49.086;9.284;2024-03-23T03:05:44;6.17;;;4.67;;
4311;SDS011;77323;49.086;9.284;2024-03-23T03:06:49;4.43;;;4.10;;
4311;SDS011;77323;49.086;9.284;2024-03-23T03:07:49;9.73;;;5.15;;
4311;SDS011;77323;49.086;9.284;2024-03-23T03:08:50;10.63;;;5.80;;
4311;SDS011;77323;49.086;9.284;2024-03-23T03:09:51;4.53;;;4.10;;
4311;SDS011;77323;49.086;9.284;2024-03-23T03:10:52;3.53;;;3.13;;
4311;SDS011;77323;49.086;9.284;2024-03-23T03:11:53;3.60;;;3.30;;
4311;SDS011;77323;49.086;9.284;2024-03-23T03:12:53;4.40;;;4.00;;
4311;SDS011;77323;49.086;9.284;2024-03-23T03:13:55;8.48;;;4.35;;
4311;SDS011;77323;49.086;9.284;2024-03-23T03:14:55;4.67;;;4.30;;
4311;SDS011;77323;49.086;9.284;2024-03-23T03:15:56;5.10;;;3.63;;
4311;SDS011;77323;49.086;9.284;2024-03-23T03:16:58;10.82;;;4.82;;
4311;SDS011;77323;49.086;9.284;2024-03-23T03:17:59;3.95;;;3.55;;
4311;SDS011;77323;49.086;9.284;2024-03-23T03:19:00;14.30;;;4.53;;
4311;SDS011;77323;49.086;9.284;2024-03-23T03:20:01;7.78;;;3.17;;
4311;SDS011;77323;49.086;9.284;2024-03-23T03:21:03;4.35;;;3.90;;
4311;SDS011;77323;49.086;9.284;2024-03-23T03:22:08;3.83;;;3.53;;
4311;SDS011;77323;49.086;9.284;2024-03-23T03:23:09;4.70;;;3.90;;
4311;SDS011;77323;49.086;9.284;2024-03-23T03:24:10;7.10;;;3.47;;
4311;SDS011;77323;49.086;9.284;2024-03-23T03:25:11;5.20;;;3.72;;
4311;SDS011;77323;49.086;9.284;2024-03-23T03:26:12;6.83;;;3.40;;
4311;SDS011;77323;49.086;9.284;2024-03-23T03:27:12;9.60;;;3.57;;
4311;SDS011;77323;49.086;9.284;2024-03-23T03:28:13;4.93;;;3.57;;
4311;SDS011;77323;49.086;9.284;2024-03-23T03:29:15;4.78;;;3.08;;
4311;SDS011;77323;49.086;9.284;2024-03-23T03:30:16;4.15;;;3.85;;
4311;SDS011;77323;49.086;9.284;2024-03-23T03:31:17;4.20;;;3.37;;
4311;SDS011;77323;49.086;9.284;2024-03-23T03:32:19;4.03;;;3.83;;
4311;SDS011;77323;49.086;9.284;2024-03-23T03:33:20;11.73;;;3.90;;
4311;SDS011;77323;49.086;9.284;2024-03-23T03:34:20;4.40;;;3.30;;
4311;SDS011;77323;49.086;9.284;2024-03-23T03:35:22;4.38;;;3.75;;
4311;SDS011;77323;49.086;9.284;2024-03-23T03:36:22;4.00;;;3.70;;
4311;SDS011;77323;49.086;9.284;2024-03-23T03:37:23;4.07;;;3.60;;
4311;SDS011;77323;49.086;9.284;2024-03-23T03:38:25;3.58;;;3.28;;
4311;SDS011;77323;49.086;9.284;2024-03-23T03:39:26;6.80;;;4.13;;
4311;SDS011;77323;49.086;9.284;2024-03-23T03:40:26;3.40;;;3.10;;
4311;SDS011;77323;49.086;9.284;2024-03-23T03:41:27;3.20;;;2.97;;
4311;SDS011;77323;49.086;9.284;2024-03-23T03:42:28;4.88;;;3.50;;
4311;SDS011;77323;49.086;9.284;2024-03-23T03:43:29;4.17;;;3.87;;
4311;SDS011;77323;49.086;9.284;2024-03-23T03:44:30;4.07;;;3.73;;
4311;SDS011;77323;49.086;9.284;2024-03-23T03:45:31;4.18;;;3.88;;
4311;SDS011;77323;49.086;9.284;2024-03-23T03:46:32;4.50;;;3.13;;
4311;SDS011;77323;49.086;9.284;2024-03-23T03:47:32;5.53;;;4.10;;
4311;SDS011;77323;49.086;9.284;2024-03-23T03:48:33;4.10;;;3.70;;
4311;SDS011;77323;49.086;9.284;2024-03-23T03:49:35;5.80;;;3.63;;
4311;SDS011;77323;49.086;9.284;2024-03-23T03:50:36;4.27;;;3.87;;
4311;SDS011;77323;49.086;9.284;2024-03-23T03:51:36;4.40;;;3.53;;
4311;SDS011;77323;49.086;9.284;2024-03-23T03:52:37;4.97;;;4.17;;
4311;SDS011;77323;49.086;9.284;2024-03-23T03:53:38;5.55;;;4.15;;
4311;SDS011;77323;49.086;9.284;2024-03-23T03:54:39;3.93;;;3.50;;
4311;SDS011;77323;49.086;9.284;2024-03-23T03:55:39;3.37;;;3.10;;
4311;SDS011;77323;49.086;9.284;2024-03-23T03:56:40;5.80;;;3.63;;
4311;SDS011;77323;49.086;9.284;2024-03-23T03:57:42;5.03;;;4.32;;
4311;SDS011;77323;49.086;9.284;2024-03-23T03:58:42;13.83;;;4.03;;
4311;SDS011;77323;49.086;9.284;2024-03-23T03:59:43;3.37;;;3.20;;
4311;SDS011;77323;49.086;9.284;2024-03-23T04:00:44;4.90;;;4.27;;
4311;SDS011;77323;49.086;9.284;2024-03-23T04:01:45;3.20;;;2.85;;
4311;SDS011;77323;49.086;9.284;2024-03-23T04:02:46;4.47;;;3.80;;
4311;SDS011;77323;49.086;9.284;2024-03-23T04:03:47;2.87;;;2.67;;
4311;SDS011;77323;49.086;9.284;2024-03-23T04:04:47;5.90;;;4.30;;
4311;SDS011;77323;49.086;9.284;2024-03-23T04:05:52;4.90;;;3.22;;
4311;SDS011;77323;49.086;9.284;2024-03-23T04:07:00;4.70;;;4.30;;
4311;SDS011;77323;49.086;9.284;2024-03-23T04:08:01;4.13;;;3.53;;
4311;SDS011;77323;49.086;9.284;2024-03-23T04:09:02;4.22;;;3.65;;
4311;SDS011;77323;49.086;9.284;2024-03-23T04:10:03;4.60;;;3.83;;
4311;SDS011;77323;49.086;9.284;2024-03-23T04:11:07;6.88;;;5.75;;
4311;SDS011;77323;49.086;9.284;2024-03-23T04:12:08;3.60;;;3.30;;
4311;SDS011;77323;49.086;9.284;2024-03-23T04:13:10;6.50;;;4.85;;
4311;SDS011;77323;49.086;9.284;2024-03-23T04:14:11;10.77;;;4.85;;
4311;SDS011;77323;49.086;9.284;2024-03-23T04:15:12;18.80;;;3.97;;
4311;SDS011;77323;49.086;9.284;2024-03-23T04:16:13;4.13;;;3.83;;
4311;SDS011;77323;49.086;9.284;2024-03-23T04:17:28;9.38;;;4.85;;
4311;SDS011;77323;49.086;9.284;2024-03-23T04:18:31;5.30;;;4.53;;
4311;SDS011;77323;49.086;9.284;2024-03-23T04:19:32;3.80;;;3.53;;
4311;SDS011;77323;49.086;9.284;2024-03-23T04:20:33;12.63;;;3.50;;
4311;SDS011;77323;49.086;9.284;2024-03-23T04:21:35;5.60;;;3.67;;
4311;SDS011;77323;49.086;9.284;2024-03-23T04:22:37;6.80;;;3.90;;
4311;SDS011;77323;49.086;9.284;2024-03-23T04:23:38;5.40;;;4.67;;
4311;SDS011;77323;49.086;9.284;2024-03-23T04:24:38;9.47;;;5.47;;
4311;SDS011;77323;49.086;9.284;2024-03-23T04:25:40;5.80;;;5.20;;
4311;SDS011;77323;49.086;9.284;2024-03-23T04:26:41;4.20;;;3.90;;
4311;SDS011;77323;49.086;9.284;2024-03-23T04:27:42;12.55;;;5.28;;
4311;SDS011;77323;49.086;9.284;2024-03-23T04:28:43;8.27;;;5.07;;
4311;SDS011;77323;49.086;9.284;2024-03-23T04:29:50;16.60;;;7.50;;
4311;SDS011;77323;49.086;9.284;2024-03-23T04:30:51;15.20;;;5.25;;
4311;SDS011;77323;49.086;9.284;2024-03-23T04:31:52;5.03;;;4.63;;
4311;SDS011;77323;49.086;9.284;2024-03-23T04:32:52;5.90;;;5.27;;
4311;SDS011;77323;49.086;9.284;2024-03-23T04:33:54;8.40;;;5.57;;
4311;SDS011;77323;49.086;9.284;2024-03-23T04:34:54;36.87;;;7.10;;
4311;SDS011;77323;49.086;9.284;2024-03-23T04:35:56;7.05;;;4.75;;
4311;SDS011;77323;49.086;9.284;2024-03-23T04:36:57;9.47;;;7.00;;
4311;SDS011;77323;49.086;9.284;2024-03-23T04:37:57;11.67;;;5.70;;
4311;SDS011;77323;49.086;9.284;2024-03-23T04:38:59;8.45;;;5.97;;
4311;SDS011;77323;49.086;9.284;2024-03-23T04:40:00;7.18;;;5.85;;
4311;SDS011;77323;49.086;9.284;2024-03-23T04:41:03;17.00;;;6.53;;
4311;SDS011;77323;49.086;9.284;2024-03-23T04:42:04;6.27;;;5.70;;
4311;SDS011;77323;49.086;9.284;2024-03-23T04:43:05;11.73;;;7.70;;
4311;SDS011;77323;49.086;9.284;2024-03-23T04:44:07;10.40;;;6.93;;
4311;SDS011;77323;49.086;9.284;2024-03-23T04:45:07;9.93;;;7.00;;
4311;SDS011;77323;49.086;9.284;2024-03-23T04:46:08;12.13;;;7.47;;
4311;SDS011;77323;49.086;9.284;2024-03-23T04:47:10;12.07;;;8.13;;
4311;SDS011;77323;49.086;9.284;2024-03-23T04:48:11;9.20;;;6.43;;
4311;SDS011;77323;49.086;9.284;2024-03-23T04:49:12;16.88;;;7.18;;
4311;SDS011;77323;49.086;9.284;2024-03-23T04:50:13;13.33;;;8.20;;
4311;SDS011;77323;49.086;9.284;2024-03-23T04:51:23;11.60;;;8.17;;
4311;SDS011;77323;49.086;9.284;2024-03-23T04:52:24;7.00;;;6.30;;
4311;SDS011;77323;49.086;9.284;2024-03-23T04:53:25;10.33;;;7.10;;
4311;SDS011;77323;49.086;9.284;2024-03-23T04:54:28;9.88;;;7.60;;
4311;SDS011;77323;49.086;9.284;2024-03-23T04:55:30;16.88;;;9.48;;
4311;SDS011;77323;49.086;9.284;2024-03-23T04:56:31;11.68;;;8.30;;
4311;SDS011;77323;49.086;9.284;2024-03-23T04:57:31;14.80;;;8.03;;
4311;SDS011;77323;49.086;9.284;2024-03-23T04:58:33;13.68;;;8.05;;
4311;SDS011;77323;49.086;9.284;2024-03-23T04:59:34;16.07;;;7.57;;
4311;SDS011;77323;49.086;9.284;2024-03-23T05:00:34;12.30;;;8.20;;
4311;SDS011;77323;49.086;9.284;2024-03-23T05:01:35;11.43;;;7.43;;
4311;SDS011;77323;49.086;9.284;2024-03-23T05:02:39;12.90;;;7.18;;
4311;SDS011;77323;49.086;9.284;2024-03-23T05:03:39;22.33;;;9.60;;
4311;SDS011;77323;49.086;9.284;2024-03-23T05:04:40;20.60;;;8.30;;
4311;SDS011;77323;49.086;9.284;2024-03-23T05:05:41;11.53;;;7.20;;
4311;SDS011;77323;49.086;9.284;2024-03-23T05:06:42;14.20;;;7.95;;
4311;SDS011;77323;49.086;9.284;2024-03-23T05:07:43;14.47;;;9.33;;
4311;SDS011;77323;49.086;9.284;2024-03-23T05:08:44;12.37;;;8.90;;
4311;SDS011;77323;49.086;9.284;2024-03-23T05:09:45;12.15;;;8.13;;
4311;SDS011;77323;49.086;9.284;2024-03-23T05:10:48;12.45;;;6.03;;
4311;SDS011;77323;49.086;9.284;2024-03-23T05:11:49;10.47;;;7.40;;
4311;SDS011;77323;49.086;9.284;2024-03-23T05:12:49;16.63;;;7.00;;
4311;SDS011;77323;49.086;9.284;2024-03-23T05:13:51;10.27;;;6.43;;
4311;SDS011;77323;49.086;9.284;2024-03-23T05:14:52;15.10;;;6.07;;
4311;SDS011;77323;49.086;9.284;2024-03-23T05:15:53;14.03;;;8.60;;
4311;SDS011;77323;49.086;9.284;2024-03-23T05:16:54;19.52;;;7.07;;
4311;SDS011;77323;49.086;9.284;2024-03-23T05:17:55;16.25;;;8.77;;
4311;SDS011;77323;49.086;9.284;2024-03-23T05:18:56;12.30;;;8.20;;
4311;SDS011;77323;49.086;9.284;2024-03-23T05:19:57;10.87;;;6.57;;
4311;SDS011;77323;49.086;9.284;2024-03-23T05:20:57;27.83;;;8.73;;
4311;SDS011;77323;49.086;9.284;2024-03-23T05:21:59;12.73;;;7.90;;
4311;SDS011;77323;49.086;9.284;2024-03-23T05:23:00;14.47;;;8.70;;
4311;SDS011;77323;49.086;9.284;2024-03-23T05:24:00;13.47;;;8.63;;
4311;SDS011;77323;49.086;9.284;2024-03-23T05:25:01;12.67;;;7.70;;
4311;SDS011;77323;49.086;9.284;2024-03-23T05:26:04;11.20;;;7.22;;
4311;SDS011;77323;49.086;9.284;2024-03-23T05:27:05;13.90;;;6.93;;
4311;SDS011;77323;49.086;9.284;2024-03-23T05:28:06;9.10;;;7.20;;
4311;SDS011;77323;49.086;9.284;2024-03-23T05:29:07;12.52;;;7.25;;
4311;SDS011;77323;49.086;9.284;2024-03-23T05:30:11;9.85;;;6.03;;
4311;SDS011;77323;49.086;9.284;2024-03-23T05:31:11;7.80;;;5.20;;
4311;SDS011;77323;49.086;9.284;2024-03-23T05:32:12;16.20;;;7.90;;
4311;SDS011;77323;49.086;9.284;2024-03-23T05:33:13;17.80;;;7.32;;
4311;SDS011;77323;49.086;9.284;2024-03-23T05:34:14;9.47;;;6.30;;
4311;SDS011;77323;49.086;9.284;2024-03-23T05:35:15;8.70;;;6.23;;
4311;SDS011;77323;49.086;9.284;2024-03-23T05:36:15;8.63;;;7.03;;
4311;SDS011;77323;49.086;9.284;2024-03-23T05:37:17;17.70;;;6.32;;
4311;SDS011;77323;49.086;9.284;2024-03-23T05:38:17;10.30;;;6.80;;
4311;SDS011;77323;49.086;9.284;2024-03-23T05:39:18;14.00;;;6.47;;
4311;SDS011;77323;49.086;9.284;2024-03-23T05:40:22;11.00;;;7.00;;
4311;SDS011;77323;49.086;9.284;2024-03-23T05:41:23;11.02;;;6.82;;
4311;SDS011;77323;49.086;9.284;2024-03-23T05:42:24;12.85;;;7.68;;
4311;SDS011;77323;49.086;9.284;2024-03-23T05:43:25;8.70;;;6.57;;
4311;SDS011;77323;49.086;9.284;2024-03-23T05:44:26;12.88;;;8.68;;
4311;SDS011;77323;49.086;9.284;2024-03-23T05:45:28;9.30;;;6.15;;
4311;SDS011;77323;49.086;9.284;2024-03-23T05:46:29;6.23;;;5.43;;
4311;SDS011;77323;49.086;9.284;2024-03-23T05:47:29;7.13;;;6.53;;
4311;SDS011;77323;49.086;9.284;2024-03-23T05:48:31;7.00;;;6.13;;
4311;SDS011;77323;49.086;9.284;2024-03-23T05:49:32;14.00;;;7.73;;
4311;SDS011;77323;49.086;9.284;2024-03-23T05:50:32;13.93;;;8.30;;
4311;SDS011;77323;49.086;9.284;2024-03-23T05:51:33;9.90;;;6.90;;
4311;SDS011;77323;49.086;9.284;2024-03-23T05:52:34;7.47;;;6.70;;
4311;SDS011;77323;49.086;9.284;2024-03-23T05:53:35;11.37;;;7.20;;
4311;SDS011;77323;49.086;9.284;2024-03-23T05:54:36;7.50;;;5.50;;
4311;SDS011;77323;49.086;9.284;2024-03-23T05:55:37;6.82;;;5.13;;
4311;SDS011;77323;49.086;9.284;2024-03-23T05:56:38;12.17;;;7.10;;
4311;SDS011;77323;49.086;9.284;2024-03-23T05:57:39;11.83;;;6.70;;
4311;SDS011;77323;49.086;9.284;2024-03-23T05:58:39;12.00;;;6.30;;
4311;SDS011;77323;49.086;9.284;2024-03-23T05:59:41;7.78;;;5.63;;
4311;SDS011;77323;49.086;9.284;2024-03-23T06:00:42;10.57;;;6.00;;
4311;SDS011;77323;49.086;9.284;2024-03-23T06:01:43;11.73;;;5.20;;
4311;SDS011;77323;49.086;9.284;2024-03-23T06:02:43;7.70;;;6.20;;
4311;SDS011;77323;49.086;9.284;2024-03-23T06:03:45;13.00;;;5.05;;
4311;SDS011;77323;49.086;9.284;2024-03-23T06:04:46;5.90;;;4.83;;
4311;SDS011;77323;49.086;9.284;2024-03-23T06:05:46;11.13;;;7.40;;
4311;SDS011;77323;49.086;9.284;2024-03-23T06:06:47;6.67;;;5.27;;
4311;SDS011;77323;49.086;9.284;2024-03-23T06:07:48;4.88;;;4.38;;
4311;SDS011;77323;49.086;9.284;2024-03-23T06:08:49;10.85;;;5.35;;
4311;SDS011;77323;49.086;9.284;2024-03-23T06:09:50;4.73;;;4.23;;
4311;SDS011;77323;49.086;9.284;2024-03-23T06:10:51;9.87;;;6.50;;
4311;SDS011;77323;49.086;9.284;2024-03-23T06:11:52;6.85;;;5.18;;
4311;SDS011;77323;49.086;9.284;2024-03-23T06:12:53;5.13;;;4.63;;
4311;SDS011;77323;49.086;9.284;2024-03-23T06:13:53;8.87;;;5.77;;
4311;SDS011;77323;49.086;9.284;2024-03-23T06:14:56;7.75;;;5.30;;
4311;SDS011;77323;49.086;9.284;2024-03-23T06:15:57;7.23;;;4.20;;
4311;SDS011;77323;49.086;9.284;2024-03-23T06:16:58;8.32;;;5.18;;
4311;SDS011;77323;49.086;9.284;2024-03-23T06:17:59;3.50;;;3.20;;
4311;SDS011;77323;49.086;9.284;2024-03-23T06:19:01;8.63;;;5.15;;
4311;SDS011;77323;49.086;9.284;2024-03-23T06:20:04;7.68;;;3.90;;
4311;SDS011;77323;49.086;9.284;2024-03-23T06:21:12;6.07;;;4.65;;
4311;SDS011;77323;49.086;9.284;2024-03-23T06:22:14;9.18;;;5.38;;
4311;SDS011;77323;49.086;9.284;2024-03-23T06:23:15;6.80;;;4.90;;
4311;SDS011;77323;49.086;9.284;2024-03-23T06:24:17;6.07;;;4.93;;
4311;SDS011;77323;49.086;9.284;2024-03-23T06:25:17;6.40;;;4.40;;
4311;SDS011;77323;49.086;9.284;2024-03-23T06:26:19;3.58;;;3.25;;
4311;SDS011;77323;49.086;9.284;2024-03-23T06:27:21;7.40;;;4.75;;
4311;SDS011;77323;49.086;9.284;2024-03-23T06:28:21;5.20;;;4.00;;
4311;SDS011;77323;49.086;9.284;2024-03-23T06:29:22;7.43;;;4.87;;
4311;SDS011;77323;49.086;9.284;2024-03-23T06:30:24;11.45;;;6.18;;
4311;SDS011;77323;49.086;9.284;2024-03-23T06:31:24;6.40;;;5.10;;
4311;SDS011;77323;49.086;9.284;2024-03-23T06:32:25;7.70;;;3.80;;
4311;SDS011;77323;49.086;9.284;2024-03-23T06:33:26;7.33;;;4.13;;
4311;SDS011;77323;49.086;9.284;2024-03-23T06:34:26;6.67;;;4.20;;
4311;SDS011;77323;49.086;9.284;2024-03-23T06:35:28;5.65;;;4.68;;
4311;SDS011;77323;49.086;9.284;2024-03-23T06:36:29;4.93;;;4.50;;
4311;SDS011;77323;49.086;9.284;2024-03-23T06:37:30;5.30;;;4.10;;
4311;SDS011;77323;49.086;9.284;2024-03-23T06:38:31;4.43;;;4.00;;
4311;SDS011;77323;49.086;9.284;2024-03-23T06:39:33;3.38;;;3.08;;
4311;SDS011;77323;49.086;9.284;2024-03-23T06:40:35;5.23;;;3.70;;
4311;SDS011;77323;49.086;9.284;2024-03-23T06:41:36;3.88;;;3.33;;
4311;SDS011;77323;49.086;9.284;2024-03-23T06:42:37;6.37;;;4.73;;
4311;SDS011;77323;49.086;9.284;2024-03-23T06:43:38;5.03;;;3.67;;
4311;SDS011;77323;49.086;9.284;2024-03-23T06:44:39;4.50;;;3.22;;
4311;SDS011;77323;49.086;9.284;2024-03-23T06:45:40;4.93;;;3.03;;
4311;SDS011;77323;49.086;9.284;2024-03-23T06:46:41;3.03;;;2.13;;
4311;SDS011;77323;49.086;9.284;2024-03-23T06:47:42;3.50;;;3.20;;
4311;SDS011;77323;49.086;9.284;2024-03-23T06:48:44;3.60;;;2.07;;
4311;SDS011;77323;49.086;9.284;2024-03-23T06:49:45;3.88;;;2.33;;
4311;SDS011;77323;49.086;9.284;2024-03-23T06:50:47;7.88;;;2.33;;
4311;SDS011;77323;49.086;9.284;2024-03-23T06:51:47;1.73;;;1.63;;
4311;SDS011;77323;49.086;9.284;2024-03-23T06:52:49;1.50;;;1.40;;
4311;SDS011;77323;49.086;9.284;2024-03-23T06:53:50;2.65;;;1.50;;
4311;SDS011;77323;49.086;9.284;2024-03-23T06:54:51;1.10;;;1.08;;
4311;SDS011;77323;49.086;9.284;2024-03-23T06:55:52;9.03;;;1.40;;
4311;SDS011;77323;49.086;9.284;2024-03-23T06:56:53;1.38;;;1.27;;
4311;SDS011;77323;49.086;9.284;2024-03-23T06:57:54;1.77;;;1.13;;
4311;SDS011;77323;49.086;9.284;2024-03-23T06:58:56;1.17;;;1.05;;
4311;SDS011;77323;49.086;9.284;2024-03-23T06:59:57;1.20;;;1.20;;
4311;SDS011;77323;49.086;9.284;2024-03-23T07:00:58;0.73;;;0.73;;
4311;SDS011;77323;49.086;9.284;2024-03-23T07:01:58;1.47;;;1.30;;
4311;SDS011;77323;49.086;9.284;2024-03-23T07:03:00;1.52;;;1.33;;
4311;SDS011;77323;49.086;9.284;2024-03-23T07:04:01;1.00;;;0.90;;
4311;SDS011;77323;49.086;9.284;2024-03-23T07:05:04;0.80;;;0.80;;